Time;durP1;ratioP1;P1;durP2;ratioP2;P2;SDS_P1;SDS_P2;PMS_P1;PMS_P2;Temp;Humidity;BMP_temperature;BMP_pressure;BME280_temperature;BME280_humidity;BME280_pressure;Samples;Min_cycle;Max_cycle;Signal;HPM_P1;HPM_P2
2020/12/21 00:01:13;;;;;;;95.35;17.00;;;3.90;81.30;;;;;;5144925;27;20434;-44
2020/12/21 00:03:39;;;;;;;126.72;23.00;;;3.90;81.30;;;;;;5148197;27;20027;-44
2020/12/21 00:06:10;;;;;;;142.88;21.98;;;3.90;81.30;;;;;;5148671;27;20095;-43
2020/12/21 00:08:36;;;;;;;69.32;18.55;;;4.00;81.50;;;;;;5148552;27;20026;-46
2020/12/21 00:11:02;;;;;;;174.00;21.48;;;3.90;81.50;;;;;;5150362;27;20028;-43
2020/12/21 00:13:28;;;;;;;131.65;21.13;;;4.00;81.50;;;;;;5148505;27;20015;-42
2020/12/21 00:15:53;;;;;;;64.28;15.15;;;4.00;81.50;;;;;;5149247;27;20023;-43
2020/12/21 00:18:19;;;;;;;94.03;20.33;;;4.00;81.50;;;;;;5150021;27;20022;-43
2020/12/21 00:20:45;;;;;;;51.28;14.38;;;3.90;81.50;;;;;;5148069;27;20437;-42
2020/12/21 00:23:11;;;;;;;69.25;15.60;;;4.00;81.60;;;;;;5154005;27;20054;-44
2020/12/21 00:25:36;;;;;;;53.45;15.10;;;3.90;81.30;;;;;;5153191;27;20022;-43
2020/12/21 00:28:02;;;;;;;50.58;15.25;;;3.90;81.20;;;;;;5148267;27;20030;-43
2020/12/21 00:30:28;;;;;;;67.40;16.52;;;3.90;81.00;;;;;;5148831;27;20015;-43
2020/12/21 00:32:54;;;;;;;33.08;15.85;;;4.00;81.00;;;;;;5149038;27;20121;-45
2020/12/21 00:35:19;;;;;;;47.00;17.45;;;3.90;81.00;;;;;;5147965;27;20332;-43
2020/12/21 00:37:45;;;;;;;65.10;19.10;;;4.00;81.20;;;;;;5148934;27;20035;-43
2020/12/21 00:40:11;;;;;;;54.60;18.08;;;3.90;81.20;;;;;;5149290;27;20019;-43
2020/12/21 00:42:37;;;;;;;103.40;18.63;;;3.90;81.30;;;;;;5147214;27;20031;-42
2020/12/21 00:45:04;;;;;;;45.70;16.48;;;3.90;81.40;;;;;;5149026;27;20045;-44
2020/12/21 00:47:33;;;;;;;46.05;15.38;;;4.00;81.50;;;;;;5148256;27;20439;-42
2020/12/21 00:49:58;;;;;;;189.82;26.17;;;3.90;81.50;;;;;;5147753;27;20353;-43
2020/12/21 00:52:24;;;;;;;89.82;19.55;;;3.90;81.40;;;;;;5148511;27;20051;-44
2020/12/21 00:54:50;;;;;;;68.22;19.48;;;4.00;81.40;;;;;;5148646;27;20118;-43
2020/12/21 00:57:15;;;;;;;119.70;21.33;;;3.90;81.40;;;;;;5147137;27;20031;-44
2020/12/21 00:59:41;;;;;;;329.10;30.95;;;3.90;81.30;;;;;;5149325;27;20102;-44
2020/12/21 01:02:07;;;;;;;158.85;23.70;;;4.00;81.50;;;;;;5148221;27;20046;-43
2020/12/21 01:04:33;;;;;;;61.85;18.10;;;3.90;81.50;;;;;;5146728;27;20148;-44
2020/12/21 01:06:58;;;;;;;46.38;17.95;;;3.90;81.70;;;;;;5147741;27;20027;-43
2020/12/21 01:09:24;;;;;;;45.95;18.98;;;4.00;81.80;;;;;;5147577;27;20021;-44
2020/12/21 01:11:53;;;;;;;236.13;24.55;;;4.00;82.00;;;;;;5147830;27;20035;-43
2020/12/21 01:14:18;;;;;;;38.03;14.68;;;4.00;82.00;;;;;;5146378;27;20136;-43
2020/12/21 01:16:44;;;;;;;158.95;22.65;;;4.00;81.90;;;;;;5148156;27;20110;-42
2020/12/21 01:19:10;;;;;;;57.38;18.00;;;4.00;81.90;;;;;;5148162;27;20011;-43
2020/12/21 01:21:35;;;;;;;115.55;18.63;;;4.00;81.80;;;;;;5128168;27;20070;-43
2020/12/21 01:24:01;;;;;;;23.35;11.68;;;4.00;81.80;;;;;;5147642;27;20447;-45
2020/12/21 01:26:28;;;;;;;25.88;13.10;;;4.00;81.50;;;;;;5148114;27;20019;-44
2020/12/21 01:28:55;;;;;;;27.73;12.75;;;4.00;81.10;;;;;;5146345;27;20450;-43
2020/12/21 01:31:21;;;;;;;21.67;10.85;;;4.00;81.20;;;;;;5148235;27;20019;-43
2020/12/21 01:33:48;;;;;;;21.90;11.52;;;4.00;81.20;;;;;;5147546;27;20034;-43
2020/12/21 01:36:16;;;;;;;18.40;10.77;;;4.00;81.30;;;;;;5146949;27;20118;-43
2020/12/21 01:38:42;;;;;;;21.77;11.75;;;4.00;81.30;;;;;;5147404;27;20118;-42
2020/12/21 01:41:07;;;;;;;20.30;11.13;;;4.00;81.20;;;;;;5147664;27;20113;-44
2020/12/21 01:43:33;;;;;;;21.50;9.98;;;4.00;81.30;;;;;;5146401;27;20104;-43
2020/12/21 01:46:10;;;;;;;21.33;10.65;;;4.00;81.30;;;;;;5146517;27;20443;-43
2020/12/21 01:48:38;;;;;;;20.27;10.25;;;4.00;81.30;;;;;;5146275;27;20443;-42
2020/12/21 01:51:05;;;;;;;16.50;9.07;;;4.00;81.20;;;;;;5147802;27;20019;-42
2020/12/21 01:53:36;;;;;;;20.63;12.20;;;4.10;81.10;;;;;;5147406;27;20023;-43
2020/12/21 01:56:06;;;;;;;18.90;10.82;;;4.10;80.90;;;;;;5146792;27;20447;-43
2020/12/21 01:58:35;;;;;;;22.20;11.65;;;4.10;80.80;;;;;;5146570;27;20022;-42
2020/12/21 02:01:03;;;;;;;20.45;11.07;;;4.10;80.80;;;;;;5152479;27;20038;-44
2020/12/21 02:03:28;;;;;;;22.48;12.07;;;4.00;80.70;;;;;;5158870;27;20121;-42
2020/12/21 02:05:54;;;;;;;20.52;10.45;;;4.00;80.60;;;;;;5159239;27;20114;-44
2020/12/21 02:08:20;;;;;;;18.02;10.85;;;4.10;80.80;;;;;;5158160;27;20428;-44
2020/12/21 02:10:46;;;;;;;24.13;11.88;;;4.00;80.70;;;;;;5157347;27;20340;-43
2020/12/21 02:13:11;;;;;;;19.70;11.02;;;4.00;80.80;;;;;;5147127;27;20102;-44
2020/12/21 02:15:38;;;;;;;21.27;11.60;;;4.00;80.70;;;;;;5147845;27;20074;-45
2020/12/21 02:18:03;;;;;;;24.05;12.23;;;4.00;80.70;;;;;;5145762;27;20036;-43
2020/12/21 02:20:31;;;;;;;23.75;12.25;;;4.00;80.60;;;;;;5146653;27;20050;-42
2020/12/21 02:22:58;;;;;;;33.40;16.80;;;4.00;80.60;;;;;;5147153;27;20067;-44
2020/12/21 02:25:24;;;;;;;29.35;15.23;;;4.00;80.60;;;;;;5145265;27;20152;-43
2020/12/21 02:27:50;;;;;;;29.10;14.88;;;4.00;80.50;;;;;;5146144;27;20030;-42
2020/12/21 02:30:16;;;;;;;35.17;13.25;;;4.00;80.50;;;;;;5146903;27;20445;-44
2020/12/21 02:32:42;;;;;;;59.53;17.05;;;4.00;80.70;;;;;;5145354;27;20019;-44
2020/12/21 02:35:08;;;;;;;27.45;12.07;;;4.00;80.70;;;;;;5146683;27;20420;-44
2020/12/21 02:37:34;;;;;;;58.40;14.32;;;4.00;80.70;;;;;;5146623;27;20401;-43
2020/12/21 02:40:00;;;;;;;105.53;16.02;;;4.00;80.70;;;;;;5145006;27;20019;-42
2020/12/21 02:42:26;;;;;;;123.43;16.52;;;4.00;80.70;;;;;;5146745;27;20046;-45
2020/12/21 02:44:52;;;;;;;37.65;11.55;;;4.00;80.70;;;;;;5146302;27;20403;-43
2020/12/21 02:47:18;;;;;;;38.92;12.48;;;4.00;80.80;;;;;;5144900;27;20041;-43
2020/12/21 02:49:43;;;;;;;106.25;16.75;;;4.00;80.70;;;;;;5147597;27;20094;-43
2020/12/21 02:52:09;;;;;;;80.32;16.17;;;4.00;80.80;;;;;;5145802;27;20031;-42
2020/12/21 02:54:35;;;;;;;35.38;12.77;;;3.90;80.80;;;;;;5145373;27;20428;-44
2020/12/21 02:57:00;;;;;;;72.22;15.18;;;3.90;80.90;;;;;;5147523;27;20027;-43
2020/12/21 02:59:26;;;;;;;71.28;13.23;;;3.90;81.00;;;;;;5145496;27;20015;-44
2020/12/21 03:01:52;;;;;;;64.05;13.43;;;4.00;81.00;;;;;;5145990;27;20041;-43
2020/12/21 03:04:18;;;;;;;35.88;14.15;;;3.90;81.00;;;;;;5146007;27;20037;-43
2020/12/21 03:06:43;;;;;;;261.27;25.13;;;3.90;81.00;;;;;;5144976;27;20035;-43
2020/12/21 03:09:09;;;;;;;74.15;14.73;;;3.90;81.00;;;;;;5145903;27;20344;-44
2020/12/21 03:11:34;;;;;;;99.85;18.42;;;3.90;80.90;;;;;;5141755;27;20063;-42
2020/12/21 03:14:00;;;;;;;63.90;13.88;;;3.90;80.90;;;;;;5135938;27;20353;-44
2020/12/21 03:16:26;;;;;;;84.93;16.65;;;3.90;80.80;;;;;;5144108;27;20031;-42
2020/12/21 03:18:51;;;;;;;64.50;17.98;;;3.90;80.70;;;;;;5136239;27;20377;-43
2020/12/21 03:21:17;;;;;;;65.70;18.27;;;3.90;80.80;;;;;;5136681;27;20061;-44
2020/12/21 03:23:43;;;;;;;136.88;20.15;;;3.90;81.00;;;;;;5137034;27;20031;-45
2020/12/21 03:26:09;;;;;;;32.83;12.00;;;3.90;81.00;;;;;;5138721;27;20029;-44
2020/12/21 03:28:35;;;;;;;95.80;15.00;;;3.90;81.10;;;;;;5146582;27;20026;-42
2020/12/21 03:31:01;;;;;;;86.63;16.30;;;3.90;81.20;;;;;;5145568;27;20448;-43
2020/12/21 03:33:27;;;;;;;127.43;16.05;;;3.90;81.20;;;;;;5145443;27;20025;-43
2020/12/21 03:35:53;;;;;;;95.85;15.35;;;3.90;81.20;;;;;;5146734;27;20022;-43
2020/12/21 03:38:18;;;;;;;46.03;11.50;;;3.90;81.20;;;;;;5147733;27;20034;-43
2020/12/21 03:40:44;;;;;;;116.65;15.73;;;3.90;81.20;;;;;;5150108;27;20034;-45
2020/12/21 03:43:10;;;;;;;84.43;16.13;;;3.90;81.20;;;;;;5149817;27;20023;-42
2020/12/21 03:45:35;;;;;;;288.10;24.95;;;3.90;81.20;;;;;;5148350;27;20023;-45
2020/12/21 03:48:01;;;;;;;281.42;24.20;;;3.90;81.30;;;;;;5150200;27;20030;-43
2020/12/21 03:50:27;;;;;;;105.88;16.48;;;3.90;81.20;;;;;;5149924;27;20015;-44
2020/12/21 03:52:53;;;;;;;102.82;17.55;;;3.90;81.30;;;;;;5148203;27;20086;-42
2020/12/21 03:55:18;;;;;;;78.88;14.55;;;3.90;81.50;;;;;;5147564;27;20018;-43
2020/12/21 03:57:44;;;;;;;80.88;17.17;;;3.90;81.30;;;;;;5148795;27;20034;-44
2020/12/21 04:00:10;;;;;;;44.25;13.63;;;3.90;81.40;;;;;;5149082;27;20019;-44
2020/12/21 04:02:37;;;;;;;74.00;14.27;;;3.90;81.20;;;;;;5149883;27;20397;-43
2020/12/21 04:05:07;;;;;;;145.35;16.27;;;3.90;81.30;;;;;;5149008;27;20071;-44
2020/12/21 04:07:35;;;;;;;114.07;15.40;;;3.90;81.30;;;;;;5148072;27;20030;-43
2020/12/21 04:10:01;;;;;;;59.33;13.32;;;3.90;81.20;;;;;;5157917;27;20046;-42
2020/12/21 04:12:27;;;;;;;223.52;21.60;;;3.90;81.10;;;;;;5155408;27;20023;-44
2020/12/21 04:14:52;;;;;;;145.23;24.13;;;3.90;80.90;;;;;;5157189;27;20416;-44
2020/12/21 04:17:18;;;;;;;79.93;23.45;;;3.90;80.70;;;;;;5159667;27;20027;-43
2020/12/21 04:19:44;;;;;;;155.60;30.02;;;3.80;80.50;;;;;;5159784;27;20027;-43
2020/12/21 04:22:09;;;;;;;178.57;30.42;;;3.80;80.70;;;;;;5159299;27;20187;-42
2020/12/21 04:24:35;;;;;;;95.55;31.40;;;3.80;80.70;;;;;;5159745;27;20029;-43
2020/12/21 04:27:01;;;;;;;99.53;29.05;;;3.80;80.70;;;;;;5159554;27;20461;-43
2020/12/21 04:29:26;;;;;;;100.65;28.38;;;3.70;80.70;;;;;;5159824;27;20373;-43
2020/12/21 04:31:54;;;;;;;79.28;26.40;;;3.70;80.90;;;;;;5160424;27;20125;-43
2020/12/21 04:34:19;;;;;;;72.75;24.13;;;3.70;80.70;;;;;;5131824;27;20330;-43
2020/12/21 04:36:45;;;;;;;107.22;29.98;;;3.70;80.70;;;;;;5147523;27;20038;-44
2020/12/21 04:39:11;;;;;;;114.60;29.85;;;3.70;80.90;;;;;;5147699;27;20015;-47
2020/12/21 04:41:36;;;;;;;112.68;28.92;;;3.60;80.80;;;;;;5149032;27;20030;-42
2020/12/21 04:44:02;;;;;;;118.28;30.25;;;3.60;80.80;;;;;;5148361;27;20060;-44
2020/12/21 04:46:28;;;;;;;107.15;27.20;;;3.60;80.90;;;;;;5147679;27;20030;-45
2020/12/21 04:48:58;;;;;;;141.05;27.42;;;3.60;80.90;;;;;;5148370;27;20011;-43
2020/12/21 04:51:33;;;;;;;85.00;25.15;;;3.60;80.80;;;;;;5148780;27;20019;-43
2020/12/21 04:53:58;;;;;;;97.82;25.38;;;3.60;80.80;;;;;;5147889;27;20102;-42
2020/12/21 04:56:24;;;;;;;129.77;29.88;;;3.60;80.80;;;;;;5147353;27;20106;-43
2020/12/21 04:58:50;;;;;;;74.35;26.27;;;3.50;80.80;;;;;;5148666;27;20089;-43
2020/12/21 05:01:16;;;;;;;69.28;27.58;;;3.50;80.70;;;;;;5148310;27;20042;-44
2020/12/21 05:03:49;;;;;;;78.55;29.83;;;3.50;80.60;;;;;;5147522;27;20038;-44
2020/12/21 05:06:15;;;;;;;69.50;26.73;;;3.50;80.60;;;;;;5147688;27;20034;-44
2020/12/21 05:08:40;;;;;;;76.53;29.75;;;3.50;80.70;;;;;;5147699;27;20031;-43
2020/12/21 05:11:06;;;;;;;77.68;29.90;;;3.40;80.60;;;;;;5149603;27;20023;-44
2020/12/21 05:13:34;;;;;;;74.88;29.50;;;3.40;81.10;;;;;;5146808;27;20034;-44
2020/12/21 05:16:01;;;;;;;68.95;27.00;;;3.40;80.50;;;;;;5145348;27;20030;-44
2020/12/21 05:18:34;;;;;;;71.70;28.58;;;3.40;80.60;;;;;;5146504;27;20030;-43
2020/12/21 05:21:07;;;;;;;66.28;30.52;;;3.40;80.70;;;;;;5148670;27;20080;-43
2020/12/21 05:23:37;;;;;;;65.70;28.50;;;3.40;80.70;;;;;;5148705;27;20023;-43
2020/12/21 05:26:12;;;;;;;59.30;25.55;;;3.30;80.60;;;;;;5147211;27;20015;-43
2020/12/21 05:28:40;;;;;;;52.08;23.95;;;3.30;80.50;;;;;;5146016;27;20079;-43
2020/12/21 05:31:12;;;;;;;59.10;28.05;;;3.30;80.20;;;;;;5147392;27;20105;-45
2020/12/21 05:33:44;;;;;;;55.83;27.35;;;3.30;80.00;;;;;;5146574;27;20082;-46
2020/12/21 05:36:12;;;;;;;64.38;29.27;;;3.30;80.00;;;;;;5139666;27;20485;-44
2020/12/21 05:38:39;;;;;;;58.42;27.08;;;3.30;80.10;;;;;;5149837;27;20058;-45
2020/12/21 05:41:16;;;;;;;57.53;28.15;;;3.30;80.00;;;;;;5158196;27;20034;-44
2020/12/21 05:43:42;;;;;;;47.95;24.33;;;3.30;80.00;;;;;;5156445;27;20027;-44
2020/12/21 05:46:13;;;;;;;46.83;23.85;;;3.30;79.80;;;;;;5158480;27;20054;-44
2020/12/21 05:48:44;;;;;;;41.42;21.35;;;3.20;79.40;;;;;;5157413;27;20037;-44
2020/12/21 05:51:11;;;;;;;;;;;3.20;79.30;;;;;;5158250;27;20282;-44
2020/12/21 05:53:39;;;;;;;37.20;19.02;;;3.20;79.40;;;;;;5156995;27;19990;-44
2020/12/21 05:56:05;;;;;;;39.65;20.20;;;3.10;79.10;;;;;;5157426;27;20200;-44
2020/12/21 05:58:33;;;;;;;43.13;21.92;;;3.10;79.10;;;;;;5155441;27;20030;-44
2020/12/21 06:01:05;;;;;;;43.03;21.83;;;3.10;79.00;;;;;;5156540;27;20038;-44
2020/12/21 06:03:48;;;;;;;52.55;27.17;;;3.10;79.10;;;;;;5156822;27;20356;-43
2020/12/21 06:06:24;;;;;;;43.15;22.88;;;3.10;79.30;;;;;;5156793;27;20026;-45
2020/12/21 06:08:53;;;;;;;39.40;18.55;;;3.10;79.50;;;;;;5156450;27;20030;-43
2020/12/21 06:11:26;;;;;;;31.88;17.13;;;3.10;79.40;;;;;;5156162;27;20022;-44
2020/12/21 06:14:13;;;;;;;36.75;18.13;;;3.10;79.20;;;;;;5155073;27;20030;-44
2020/12/21 06:16:40;;;;;;;32.78;17.70;;;3.10;78.90;;;;;;5156303;27;20049;-44
2020/12/21 06:19:05;;;;;;;26.60;15.10;;;3.10;78.70;;;;;;5156023;27;20145;-44
2020/12/21 06:21:41;;;;;;;33.88;16.33;;;3.10;78.60;;;;;;5156629;27;20077;-43
2020/12/21 06:24:19;;;;;;;45.08;20.38;;;3.10;78.70;;;;;;5156114;27;20038;-44
2020/12/21 06:26:46;;;;;;;41.45;20.77;;;3.10;78.70;;;;;;5156960;27;20034;-44
2020/12/21 06:29:27;;;;;;;51.28;23.17;;;3.10;78.70;;;;;;5157411;27;20027;-43
2020/12/21 06:31:54;;;;;;;60.65;28.40;;;3.20;78.70;;;;;;5158001;27;20026;-44
2020/12/21 06:34:29;;;;;;;43.17;22.25;;;3.10;78.70;;;;;;5157780;27;20027;-44
2020/12/21 06:37:10;;;;;;;52.72;27.08;;;3.20;78.50;;;;;;5156984;27;20430;-44
2020/12/21 06:39:37;;;;;;;49.33;26.15;;;3.20;78.20;;;;;;5156329;27;20031;-44
2020/12/21 06:42:10;;;;;;;59.35;28.88;;;3.20;78.20;;;;;;5156206;27;20042;-44
2020/12/21 06:44:39;;;;;;;46.72;23.02;;;3.20;78.20;;;;;;5156851;27;20026;-43
2020/12/21 06:47:09;;;;;;;57.00;30.05;;;3.20;77.70;;;;;;5157468;27;20336;-43
2020/12/21 06:49:35;;;;;;;75.68;37.85;;;3.20;77.30;;;;;;5157390;27;20030;-43
2020/12/21 06:52:00;;;;;;;43.90;19.75;;;3.20;77.20;;;;;;5157877;27;20061;-43
2020/12/21 06:54:26;;;;;;;34.47;17.63;;;3.10;76.90;;;;;;5157625;27;20069;-44
2020/12/21 06:56:52;;;;;;;35.58;21.08;;;3.10;77.50;;;;;;5156647;27;20030;-43
2020/12/21 06:59:23;;;;;;;30.30;17.65;;;3.10;76.90;;;;;;5151022;27;20021;-44
2020/12/21 07:01:50;;;;;;;;;;;3.10;76.80;;;;;;5155916;27;20030;-43
2020/12/21 07:04:22;;;;;;;30.23;15.30;;;3.10;77.20;;;;;;5153743;27;19959;-43
2020/12/21 07:06:48;;;;;;;23.50;13.18;;;3.10;76.90;;;;;;5153637;27;20091;-44
2020/12/21 07:09:20;;;;;;;31.50;17.50;;;3.00;76.80;;;;;;5153770;27;20026;-44
2020/12/21 07:11:58;;;;;;;29.42;16.30;;;3.00;77.00;;;;;;5154304;27;20483;-44
2020/12/21 07:14:26;;;;;;;24.52;13.63;;;3.10;77.10;;;;;;5155401;27;20620;-45
2020/12/21 07:17:09;;;;;;;30.52;18.02;;;3.10;76.70;;;;;;5155855;27;20031;-44
2020/12/21 07:19:39;;;;;;;26.27;14.55;;;3.10;76.80;;;;;;5155132;27;20079;-44
2020/12/21 07:22:06;;;;;;;24.00;13.57;;;3.00;76.70;;;;;;5156331;27;20263;-45
2020/12/21 07:24:33;;;;;;;24.65;12.82;;;3.10;76.70;;;;;;5154062;27;20076;-43
2020/12/21 07:26:58;;;;;;;31.70;16.10;;;3.10;76.60;;;;;;5156755;27;20034;-44
2020/12/21 07:29:35;;;;;;;35.42;18.98;;;3.10;76.70;;;;;;5157251;27;20021;-44
2020/12/21 07:32:01;;;;;;;30.65;15.52;;;3.10;76.60;;;;;;5156439;27;20039;-44
2020/12/21 07:34:27;;;;;;;27.67;15.75;;;3.10;76.40;;;;;;5156532;27;20149;-41
2020/12/21 07:36:53;;;;;;;27.48;15.43;;;3.10;76.30;;;;;;5148209;27;20026;-41
2020/12/21 07:39:20;;;;;;;31.27;17.15;;;3.10;75.90;;;;;;5141705;27;20027;-44
2020/12/21 07:41:54;;;;;;;48.85;24.23;;;3.10;75.70;;;;;;5156526;27;20038;-45
2020/12/21 07:44:31;;;;;;;37.90;21.23;;;3.20;75.90;;;;;;5156311;27;20019;-44
2020/12/21 07:47:02;;;;;;;37.25;19.70;;;3.10;75.60;;;;;;5156104;27;21400;-43
2020/12/21 07:49:31;;;;;;;30.73;16.95;;;3.10;75.70;;;;;;5154654;27;20033;-43
2020/12/21 07:52:17;;;;;;;29.95;15.50;;;3.10;75.80;;;;;;5156609;27;20027;-43
2020/12/21 07:54:44;;;;;;;33.25;18.25;;;3.10;75.70;;;;;;5156741;27;20019;-43
2020/12/21 07:57:14;;;;;;;26.48;15.32;;;3.20;75.80;;;;;;5148509;27;20059;-42
2020/12/21 07:59:40;;;;;;;32.15;17.08;;;3.20;75.50;;;;;;5156873;27;20023;-43
2020/12/21 08:02:10;;;;;;;28.45;14.88;;;3.20;75.30;;;;;;5156086;27;20565;-41
2020/12/21 08:13:15;;;;;;;30.45;16.80;;;3.20;74.70;;;;;;5103633;27;20703;-42
2020/12/21 08:15:41;;;;;;;44.00;21.40;;;3.10;74.60;;;;;;5101760;28;20027;-42
2020/12/21 08:18:12;;;;;;;67.70;36.38;;;3.10;74.60;;;;;;5105050;28;20024;-42
2020/12/21 08:20:51;;;;;;;179.52;92.20;;;3.10;74.80;;;;;;5103415;28;20084;-42
2020/12/21 08:23:28;;;;;;;128.32;73.38;;;3.10;74.70;;;;;;5113036;28;20402;-42
2020/12/21 08:25:54;;;;;;;73.10;45.22;;;3.10;74.90;;;;;;5086295;28;20099;-43
2020/12/21 08:28:37;;;;;;;54.60;35.28;;;3.10;74.70;;;;;;5103431;28;20653;-43
2020/12/21 08:31:04;;;;;;;58.40;25.58;;;3.20;74.70;;;;;;5104118;28;20443;-43
2020/12/21 08:33:29;;;;;;;59.45;34.15;;;3.20;74.60;;;;;;5107466;28;20027;-45
2020/12/21 08:35:55;;;;;;;42.03;22.55;;;3.20;74.50;;;;;;5104342;28;20345;-44
2020/12/21 08:38:21;;;;;;;30.23;17.20;;;3.20;74.40;;;;;;5092175;28;20027;-48
2020/12/21 08:40:56;;;;;;;30.00;17.00;;;3.20;74.50;;;;;;5092235;28;20024;-45
2020/12/21 08:43:21;;;;;;;27.65;15.68;;;3.30;74.20;;;;;;5092082;28;20129;-45
2020/12/21 08:45:48;;;;;;;33.72;16.42;;;3.30;74.00;;;;;;5092259;28;20422;-44
2020/12/21 08:48:14;;;;;;;26.20;15.65;;;3.30;73.80;;;;;;5091850;28;20539;-45
2020/12/21 08:50:40;;;;;;;25.20;13.40;;;3.30;73.80;;;;;;5092513;28;20077;-44
2020/12/21 08:53:05;;;;;;;30.13;15.07;;;3.30;73.60;;;;;;5091748;28;20430;-46
2020/12/21 08:55:31;;;;;;;24.50;15.63;;;3.40;73.50;;;;;;5091715;28;20111;-46
2020/12/21 08:57:57;;;;;;;25.33;13.95;;;3.40;74.20;;;;;;5091947;28;20418;-46
2020/12/21 09:00:22;;;;;;;24.10;14.35;;;3.40;73.50;;;;;;5092178;28;20023;-46
2020/12/21 09:02:48;;;;;;;24.05;13.73;;;3.40;73.30;;;;;;5091542;28;20082;-44
2020/12/21 09:05:14;;;;;;;22.30;13.80;;;3.40;73.00;;;;;;5091544;28;20358;-46
2020/12/21 09:07:40;;;;;;;19.67;12.30;;;3.40;72.90;;;;;;5090586;28;20028;-44
2020/12/21 09:10:06;;;;;;;20.13;12.18;;;3.40;72.90;;;;;;5089966;28;20391;-45
2020/12/21 09:12:33;;;;;;;22.45;13.55;;;3.40;72.80;;;;;;5089634;28;20059;-45
2020/12/21 09:14:58;;;;;;;21.17;11.32;;;3.40;73.10;;;;;;5090412;28;20412;-44
2020/12/21 09:17:24;;;;;;;18.17;10.85;;;3.50;73.20;;;;;;5090417;28;20032;-43
2020/12/21 09:19:50;;;;;;;22.35;13.20;;;3.50;72.30;;;;;;5090835;28;20018;-45
2020/12/21 09:22:15;;;;;;;19.35;12.82;;;3.50;72.10;;;;;;5089887;28;20362;-45
2020/12/21 09:24:41;;;;;;;16.33;10.35;;;3.50;71.80;;;;;;5077175;28;20107;-44
2020/12/21 09:27:07;;;;;;;22.08;12.57;;;3.50;71.70;;;;;;5078660;28;20052;-46
2020/12/21 09:29:32;;;;;;;15.95;11.50;;;3.50;71.50;;;;;;5078241;28;20085;-48
2020/12/21 09:31:59;;;;;;;19.85;12.02;;;3.40;71.20;;;;;;5078381;28;20051;-45
2020/12/21 09:34:25;;;;;;;17.13;10.15;;;3.30;71.00;;;;;;5077708;28;20334;-45
2020/12/21 09:36:51;;;;;;;15.43;9.55;;;3.30;70.90;;;;;;5078458;28;20028;-45
2020/12/21 09:39:16;;;;;;;13.88;9.43;;;3.30;70.80;;;;;;5077163;28;20025;-45
2020/12/21 09:41:42;;;;;;;14.10;9.07;;;3.20;71.00;;;;;;5081170;28;20024;-46
2020/12/21 09:44:08;;;;;;;18.67;8.77;;;3.10;71.10;;;;;;5096050;28;20020;-46
2020/12/21 09:46:34;;;;;;;10.75;7.40;;;3.10;71.00;;;;;;5077772;28;20028;-46
2020/12/21 09:49:03;;;;;;;18.73;9.68;;;3.10;70.70;;;;;;5076556;28;20055;-46
2020/12/21 09:51:32;;;;;;;13.70;9.25;;;3.00;70.80;;;;;;5077528;28;20051;-45
2020/12/21 09:53:58;;;;;;;13.63;8.90;;;3.00;70.90;;;;;;5075886;28;20024;-46
2020/12/21 09:56:24;;;;;;;14.27;10.07;;;3.00;70.90;;;;;;5077106;28;20403;-47
2020/12/21 09:58:49;;;;;;;16.95;9.02;;;3.00;71.00;;;;;;5077040;28;20064;-45
2020/12/21 10:01:15;;;;;;;18.15;11.35;;;3.00;71.00;;;;;;5077417;28;20061;-46
2020/12/21 10:03:41;;;;;;;14.20;9.73;;;3.00;70.90;;;;;;5077026;28;20028;-48
2020/12/21 10:06:08;;;;;;;18.40;9.65;;;2.90;70.50;;;;;;5077545;28;20100;-45
2020/12/21 10:08:35;;;;;;;18.63;9.88;;;3.00;70.60;;;;;;5076417;28;20060;-45
2020/12/21 10:11:00;;;;;;;16.33;10.30;;;2.90;70.70;;;;;;5076710;28;20044;-45
2020/12/21 10:13:26;;;;;;;25.63;13.82;;;2.90;70.80;;;;;;5076064;28;20043;-45
2020/12/21 10:15:51;;;;;;;27.80;15.13;;;2.90;70.50;;;;;;5076201;28;20029;-49
2020/12/21 10:18:17;;;;;;;22.98;15.27;;;2.80;70.10;;;;;;5076627;28;20390;-48
2020/12/21 10:20:44;;;;;;;33.05;19.08;;;2.80;70.00;;;;;;5077058;28;20032;-45
2020/12/21 10:23:10;;;;;;;44.22;25.70;;;2.70;70.40;;;;;;5074938;28;20042;-45
2020/12/21 10:25:35;;;;;;;118.97;58.20;;;2.70;70.10;;;;;;5076633;28;20423;-46
2020/12/21 10:28:01;;;;;;;33.65;18.85;;;2.60;70.30;;;;;;5076468;28;20043;-47
2020/12/21 10:30:27;;;;;;;31.23;19.90;;;2.60;70.60;;;;;;5077285;28;20078;-46
2020/12/21 10:32:52;;;;;;;18.67;12.52;;;2.60;70.60;;;;;;5076259;28;20354;-45
2020/12/21 10:35:18;;;;;;;22.90;14.32;;;2.60;70.70;;;;;;5075729;28;20035;-45
2020/12/21 10:37:45;;;;;;;18.60;12.32;;;2.50;70.70;;;;;;5076027;28;20032;-46
2020/12/21 10:40:11;;;;;;;15.73;11.32;;;2.50;70.50;;;;;;5076503;28;20024;-46
2020/12/21 10:42:36;;;;;;;17.15;11.20;;;2.50;70.60;;;;;;5079224;28;20079;-44
2020/12/21 10:45:02;;;;;;;14.13;9.90;;;2.50;70.40;;;;;;5088836;28;20165;-45
2020/12/21 10:47:30;;;;;;;14.27;10.73;;;2.50;70.30;;;;;;5080074;28;20036;-46
2020/12/21 10:49:56;;;;;;;20.52;13.95;;;2.40;69.90;;;;;;5093975;28;20021;-45
2020/12/21 10:52:21;;;;;;;17.15;11.98;;;2.40;69.70;;;;;;5087648;28;20422;-45
2020/12/21 10:54:47;;;;;;;20.05;13.38;;;2.40;69.70;;;;;;5072145;28;20031;-45
2020/12/21 10:57:13;;;;;;;20.38;13.35;;;2.40;69.90;;;;;;5074771;28;20068;-45
2020/12/21 10:59:38;;;;;;;18.13;12.75;;;2.40;70.10;;;;;;5088853;28;20409;-45
2020/12/21 11:02:04;;;;;;;17.10;11.88;;;2.40;70.00;;;;;;5073097;28;20170;-48
2020/12/21 11:04:30;;;;;;;20.27;13.35;;;2.40;69.80;;;;;;5070636;28;20035;-47
2020/12/21 11:06:56;;;;;;;19.75;13.02;;;2.40;69.80;;;;;;5076880;28;20024;-45
2020/12/21 11:09:22;;;;;;;20.13;13.73;;;2.40;69.70;;;;;;5081537;28;20376;-45
2020/12/21 11:11:47;;;;;;;15.43;10.55;;;2.40;69.50;;;;;;5084864;28;20056;-46
2020/12/21 11:14:13;;;;;;;12.07;8.88;;;2.40;69.30;;;;;;5087018;28;20020;-45
2020/12/21 11:16:39;;;;;;;13.00;8.55;;;2.40;69.10;;;;;;5083930;28;20082;-45
2020/12/21 11:19:05;;;;;;;14.05;8.98;;;2.40;69.20;;;;;;5076986;28;20032;-47
2020/12/21 11:21:36;;;;;;;14.40;9.15;;;2.40;69.20;;;;;;5089303;28;20442;-45
2020/12/21 11:24:03;;;;;;;16.45;9.15;;;2.40;69.10;;;;;;5075096;28;20430;-45
2020/12/21 11:26:29;;;;;;;13.02;8.00;;;2.30;69.10;;;;;;5076842;28;20067;-45
2020/12/21 11:28:54;;;;;;;22.48;7.93;;;2.30;69.10;;;;;;5083213;28;20044;-45
2020/12/21 11:31:20;;;;;;;12.00;8.10;;;2.30;69.00;;;;;;5081954;28;20055;-45
2020/12/21 11:33:46;;;;;;;14.25;7.38;;;2.20;68.70;;;;;;5075597;28;20021;-47
2020/12/21 11:36:12;;;;;;;9.93;7.53;;;2.20;68.70;;;;;;5076241;28;20036;-46
2020/12/21 11:38:38;;;;;;;9.07;6.78;;;2.20;68.60;;;;;;5089222;28;20443;-44
2020/12/21 11:41:05;;;;;;;8.65;6.82;;;2.10;68.30;;;;;;5084952;28;20024;-46
2020/12/21 11:43:31;;;;;;;13.55;7.30;;;2.10;68.10;;;;;;5073809;28;20020;-44
2020/12/21 11:45:57;;;;;;;18.40;8.10;;;2.00;68.30;;;;;;5085003;28;20028;-44
2020/12/21 11:48:22;;;;;;;19.40;12.82;;;2.00;68.50;;;;;;5074639;28;20043;-43
2020/12/21 11:50:48;;;;;;;14.05;10.70;;;2.00;68.80;;;;;;5074510;28;20115;-44
2020/12/21 11:53:14;;;;;;;9.27;6.72;;;2.00;68.90;;;;;;5084324;28;20466;-44
2020/12/21 11:55:39;;;;;;;10.55;8.50;;;2.00;68.90;;;;;;5081853;28;20035;-43
2020/12/21 11:58:05;;;;;;;30.40;20.15;;;2.00;68.90;;;;;;5076441;28;20031;-44
2020/12/21 12:00:31;;;;;;;22.77;13.50;;;2.00;69.10;;;;;;5072877;28;20027;-43
2020/12/21 12:02:57;;;;;;;17.52;11.95;;;2.00;68.90;;;;;;5073043;28;20033;-42
2020/12/21 12:05:23;;;;;;;25.20;14.48;;;2.00;68.80;;;;;;5086750;28;20315;-47
2020/12/21 12:07:49;;;;;;;26.58;17.92;;;2.00;68.80;;;;;;5074998;28;20127;-43
2020/12/21 12:10:15;;;;;;;26.95;17.30;;;2.00;69.40;;;;;;5075232;28;20027;-46
2020/12/21 12:12:40;;;;;;;12.90;8.93;;;2.00;68.80;;;;;;5079096;28;20142;-45
2020/12/21 12:15:06;;;;;;;16.80;10.82;;;2.00;68.50;;;;;;5095134;28;20030;-47
2020/12/21 12:17:32;;;;;;;15.77;9.73;;;2.00;68.50;;;;;;5094694;28;20127;-44
2020/12/21 12:19:57;;;;;;;19.48;14.57;;;2.00;68.50;;;;;;5086773;28;20056;-44
2020/12/21 12:22:23;;;;;;;17.65;10.07;;;2.00;68.40;;;;;;5075287;28;20127;-48
2020/12/21 12:24:49;;;;;;;12.77;7.60;;;1.90;68.40;;;;;;5074607;28;20028;-44
2020/12/21 12:27:15;;;;;;;12.57;8.52;;;1.90;68.10;;;;;;5075001;28;20037;-46
2020/12/21 12:29:40;;;;;;;13.88;8.85;;;1.80;68.00;;;;;;5072302;28;20021;-45
2020/12/21 12:32:06;;;;;;;11.27;8.10;;;1.80;68.10;;;;;;5063862;28;20417;-45
2020/12/21 12:34:32;;;;;;;31.63;15.27;;;1.70;67.90;;;;;;5080932;28;20338;-45
2020/12/21 12:36:58;;;;;;;18.27;9.98;;;1.70;67.80;;;;;;5074446;28;20037;-47
2020/12/21 12:39:23;;;;;;;17.00;10.95;;;1.70;68.00;;;;;;5067251;28;20028;-47
2020/12/21 12:41:49;;;;;;;15.13;8.75;;;1.70;68.20;;;;;;5068238;28;20055;-45
2020/12/21 12:44:15;;;;;;;13.15;8.63;;;1.70;68.50;;;;;;5064517;28;20107;-45
2020/12/21 12:46:40;;;;;;;22.58;13.20;;;1.70;68.50;;;;;;5075001;28;20086;-45